Troy, NY

9:07 PM EST on February 08, 2016 (GMT -0500)
Bald Mountain | | Change Station
CLOSE
Current Station
Personal Weather Station
Location: Troy, NY
Elevation: 546 ft
Nearby Weather Stations

Elev 546 ft 42.77 °N, 73.64 °W | Updated 14 seconds ago

Snow
Snow
23.9 °F
Feels Like 24 °F
N
0.0
Wind Variable Wind from NNE
Gusts 0.0 mph

Today
High -- | Low -- °F
--% Chance of Precip.
Yesterday
High -- | Low -- °F
Precip. -- in
Pressure 29.82 in
Visibility 1.5 miles
Clouds Few 800 ft
Mostly Cloudy 1900 ft
Overcast 2600 ft
Windchill 24 °F
Dew Point 19 °F
Humidity 82%
Rainfall 0.00 in
Snow Depth Not available.
7:01 AM 5:16 PM
New Moon, 0% visible
METAR KALB 090151Z 27005KT 1 1/2SM -SN BR FEW008 BKN019 OVC026 M04/M06 A2981 RMK AO2 SLP098 P0002 T10391061 $
Pressure 29.82 in
Visibility 1.5 miles
Clouds Few 800 ft
Mostly Cloudy 1900 ft
Overcast 2600 ft
Windchill 24 °F
Dew Point 19 °F
Humidity 82%
Rainfall 0.00 in
Snow Depth Not available.
7:01 AM 5:16 PM
New Moon, 0% visible
METAR KALB 090151Z 27005KT 1 1/2SM -SN BR FEW008 BKN019 OVC026 M04/M06 A2981 RMK AO2 SLP098 P0002 T10391061 $

10-Day Weather Forecast

Almanac

Astronomy

Feb. 08, 2016 Rise Set
Actual Time
Civil Twilight
Nautical Twilight
Astronomical Twilight
Moon
Length of Visible Light
Length of Day
Tomorrow will be .
, % of the Moon is Illuminated

Today's Extremes

State Highs State Lows

Community

WunderPhotos

Upload Photos

1,891,527 photos uploaded!

WunderBlog® & News

Nearby

Air Quality

  Air Quality AQ Index Pollutant
Not available.

Snow Depth

Station Depth Elevation

Earthquake Activity

City Distance Mag. Time & Date
Minimum magnitude displayed is 2.5.

Coastal Water Temperatures

Place Temperature

Stations

Nearby Weather Stations

Station Location Temp. Windchill Dew Point Humidity Wind Precip. Elev Updated Type
                   

Watches & Warnings

There are currently no watches in effect.